Time;durP1;ratioP1;P1;durP2;ratioP2;P2;SDS_P1;SDS_P2;PMS_P1;PMS_P2;Temp;Humidity;BMP_temperature;BMP_pressure;BME280_temperature;BME280_humidity;BME280_pressure;Samples;Min_cycle;Max_cycle;Signal;HPM_P1;HPM_P2
2023/06/29 00:01:03;;;;;;;23.17;20.60;;;;;;;;;;5033776;28;20124;-76
2023/06/29 00:03:31;;;;;;;21.58;19.42;;;;;;;;;;5034739;28;20049;-75
2023/06/29 00:05:58;;;;;;;22.38;19.73;;;;;;;;;;5034588;28;20057;-75
2023/06/29 00:08:29;;;;;;;22.73;19.40;;;;;;;;;;5034495;28;20053;-76
2023/06/29 00:10:55;;;;;;;21.75;19.38;;;;;;;;;;5033649;28;20053;-75
2023/06/29 00:13:22;;;;;;;22.92;20.60;;;;;;;;;;5035163;28;20049;-75
2023/06/29 00:15:48;;;;;;;23.20;20.45;;;;;;;;;;5034808;28;20045;-75
2023/06/29 00:18:14;;;;;;;23.10;20.70;;;;;;;;;;5033794;28;20057;-76
2023/06/29 00:20:41;;;;;;;21.38;19.35;;;;;;;;;;5033841;28;20049;-76
2023/06/29 00:23:08;;;;;;;21.17;18.92;;;;;;;;;;5034070;28;20485;-75
2023/06/29 00:25:34;;;;;;;19.83;18.00;;;;;;;;;;5033166;28;20053;-76
2023/06/29 00:28:00;;;;;;;23.02;19.48;;;;;;;;;;5033368;28;20088;-76
2023/06/29 00:30:27;;;;;;;21.48;18.88;;;;;;;;;;5034288;28;20118;-76
2023/06/29 00:32:53;;;;;;;21.02;18.98;;;;;;;;;;5033258;28;20046;-76
2023/06/29 00:35:19;;;;;;;19.88;17.77;;;;;;;;;;5033254;28;20092;-76
2023/06/29 00:37:45;;;;;;;19.38;17.58;;;;;;;;;;5033962;28;20095;-75
2023/06/29 00:40:11;;;;;;;21.60;18.45;;;;;;;;;;5033399;28;20052;-75
2023/06/29 00:42:37;;;;;;;20.88;18.67;;;;;;;;;;5033123;28;20049;-75
2023/06/29 00:45:04;;;;;;;20.73;18.58;;;;;;;;;;5033797;28;20098;-75
2023/06/29 00:47:31;;;;;;;18.27;16.42;;;;;;;;;;5034626;28;20508;-76
2023/06/29 00:49:57;;;;;;;22.58;18.23;;;;;;;;;;5033012;28;20050;-76
2023/06/29 00:52:23;;;;;;;21.35;17.13;;;;;;;;;;5033189;28;20049;-75
2023/06/29 00:54:50;;;;;;;19.42;17.55;;;;;;;;;;5032866;28;20366;-75
2023/06/29 00:57:16;;;;;;;18.88;17.17;;;;;;;;;;5032867;28;20053;-75
2023/06/29 00:59:43;;;;;;;19.70;17.67;;;;;;;;;;5016329;28;20060;-75
2023/06/29 01:02:09;;;;;;;20.38;18.35;;;;;;;;;;5032891;28;20077;-75
2023/06/29 01:04:36;;;;;;;21.25;19.20;;;;;;;;;;5033547;28;20136;-76
2023/06/29 01:07:10;;;;;;;19.73;17.35;;;;;;;;;;5033684;28;20050;-75
2023/06/29 01:09:36;;;;;;;20.35;18.17;;;;;;;;;;5033656;28;20046;-75
2023/06/29 01:12:03;;;;;;;22.40;18.48;;;;;;;;;;5016214;28;20374;-76
2023/06/29 01:14:31;;;;;;;19.98;18.08;;;;;;;;;;5033919;28;20072;-75
2023/06/29 01:16:57;;;;;;;21.60;19.50;;;;;;;;;;5033578;28;20044;-76
2023/06/29 01:19:25;;;;;;;21.38;18.92;;;;;;;;;;5033624;28;20149;-76
2023/06/29 01:21:58;;;;;;;21.83;19.52;;;;;;;;;;5033551;28;20049;-75
2023/06/29 01:24:26;;;;;;;20.05;17.52;;;;;;;;;;5032846;28;20049;-75
2023/06/29 01:26:52;;;;;;;20.95;19.02;;;;;;;;;;5032106;28;20057;-75
2023/06/29 01:29:25;;;;;;;20.23;17.85;;;;;;;;;;5032952;28;20531;-75
2023/06/29 01:31:53;;;;;;;20.02;17.92;;;;;;;;;;5033264;28;20469;-75
2023/06/29 01:34:20;;;;;;;20.55;18.52;;;;;;;;;;5015997;28;20056;-75
2023/06/29 01:36:48;;;;;;;19.17;17.40;;;;;;;;;;5032446;28;20080;-75
2023/06/29 01:39:17;;;;;;;20.83;18.77;;;;;;;;;;5015619;28;20045;-75
2023/06/29 01:41:44;;;;;;;20.45;18.35;;;;;;;;;;5033442;28;20108;-75
2023/06/29 01:44:15;;;;;;;20.45;18.25;;;;;;;;;;5032038;28;20049;-76
2023/06/29 01:46:41;;;;;;;23.10;20.52;;;;;;;;;;5033566;28;20077;-75
2023/06/29 01:49:07;;;;;;;20.50;18.38;;;;;;;;;;5033852;28;20061;-76
2023/06/29 01:51:33;;;;;;;20.58;18.58;;;;;;;;;;5015833;28;20049;-75
2023/06/29 01:53:59;;;;;;;18.83;16.90;;;;;;;;;;5033246;28;20088;-75
2023/06/29 01:56:25;;;;;;;20.40;18.25;;;;;;;;;;5032258;28;20061;-75
2023/06/29 01:58:51;;;;;;;22.35;19.92;;;;;;;;;;5034941;28;20060;-75
2023/06/29 02:01:17;;;;;;;21.20;19.13;;;;;;;;;;5037005;28;20049;-75
2023/06/29 02:03:43;;;;;;;22.40;20.17;;;;;;;;;;5036135;28;20045;-75
2023/06/29 02:06:10;;;;;;;21.70;19.02;;;;;;;;;;5036731;28;20049;-75
2023/06/29 02:08:37;;;;;;;21.23;19.00;;;;;;;;;;5036943;28;20049;-75
2023/06/29 02:11:04;;;;;;;21.48;19.42;;;;;;;;;;5036721;28;20056;-75
2023/06/29 02:13:30;;;;;;;21.73;19.55;;;;;;;;;;5037404;28;20371;-75
2023/06/29 02:15:56;;;;;;;23.10;20.73;;;;;;;;;;5036843;28;20064;-75
2023/06/29 02:18:22;;;;;;;21.20;19.00;;;;;;;;;;5035853;28;20061;-75
2023/06/29 02:20:48;;;;;;;23.30;20.80;;;;;;;;;;5035779;28;20049;-75
2023/06/29 02:23:14;;;;;;;22.58;20.17;;;;;;;;;;5035513;28;20049;-75
2023/06/29 02:25:40;;;;;;;21.25;19.33;;;;;;;;;;5036641;28;20099;-76
2023/06/29 02:28:06;;;;;;;23.55;20.85;;;;;;;;;;5036556;28;20053;-75
2023/06/29 02:30:32;;;;;;;22.67;20.20;;;;;;;;;;5035489;28;20576;-75
2023/06/29 02:32:58;;;;;;;22.08;19.77;;;;;;;;;;5035796;28;20045;-75
2023/06/29 02:35:24;;;;;;;22.13;20.00;;;;;;;;;;5036471;28;20087;-75
2023/06/29 02:37:50;;;;;;;22.58;20.38;;;;;;;;;;5036422;28;20041;-75
2023/06/29 02:40:16;;;;;;;20.88;18.65;;;;;;;;;;5018869;28;20089;-76
2023/06/29 02:42:43;;;;;;;21.67;19.42;;;;;;;;;;5036385;28;20049;-76
2023/06/29 02:45:09;;;;;;;22.25;19.40;;;;;;;;;;5036513;28;20096;-75
2023/06/29 02:47:35;;;;;;;22.52;20.30;;;;;;;;;;5036224;28;20045;-75
2023/06/29 02:50:01;;;;;;;20.45;18.48;;;;;;;;;;5035054;28;20061;-76
2023/06/29 02:52:27;;;;;;;22.80;20.42;;;;;;;;;;5034852;28;20054;-76
2023/06/29 02:54:53;;;;;;;22.73;20.33;;;;;;;;;;5036069;28;20481;-76
2023/06/29 02:57:19;;;;;;;21.38;19.27;;;;;;;;;;5036022;28;20540;-76
2023/06/29 02:59:46;;;;;;;22.63;19.90;;;;;;;;;;5034939;28;20489;-75
2023/06/29 03:02:12;;;;;;;22.50;20.10;;;;;;;;;;5035265;28;20046;-76
2023/06/29 03:04:38;;;;;;;22.13;19.80;;;;;;;;;;5036007;28;20049;-76
2023/06/29 03:07:04;;;;;;;23.38;20.98;;;;;;;;;;5035855;28;20038;-76
2023/06/29 03:09:30;;;;;;;23.45;21.08;;;;;;;;;;5034253;28;20081;-76
2023/06/29 03:11:56;;;;;;;23.52;21.23;;;;;;;;;;5034502;28;20103;-76
2023/06/29 03:14:22;;;;;;;24.15;21.70;;;;;;;;;;5035037;28;20499;-75
2023/06/29 03:16:48;;;;;;;22.23;20.02;;;;;;;;;;5035545;28;20378;-75
2023/06/29 03:19:14;;;;;;;26.60;22.15;;;;;;;;;;5035628;28;20049;-75
2023/06/29 03:21:41;;;;;;;21.75;19.65;;;;;;;;;;5034685;28;20056;-75
2023/06/29 03:24:07;;;;;;;24.02;21.25;;;;;;;;;;5036333;28;20136;-75
2023/06/29 03:26:33;;;;;;;25.05;22.05;;;;;;;;;;5034139;28;20406;-75
2023/06/29 03:28:59;;;;;;;24.27;21.20;;;;;;;;;;5034537;28;20096;-81
2023/06/29 03:31:25;;;;;;;23.17;20.60;;;;;;;;;;5035374;28;20056;-76
2023/06/29 03:33:51;;;;;;;24.42;21.67;;;;;;;;;;5035409;28;20088;-75
2023/06/29 03:36:19;;;;;;;23.65;21.23;;;;;;;;;;5034430;28;20049;-75
2023/06/29 03:38:45;;;;;;;24.60;22.02;;;;;;;;;;5035344;28;20060;-76
2023/06/29 03:41:11;;;;;;;25.88;22.95;;;;;;;;;;5033956;28;20049;-76
2023/06/29 03:43:37;;;;;;;25.33;22.75;;;;;;;;;;5035177;28;20052;-75
2023/06/29 03:46:03;;;;;;;24.52;22.00;;;;;;;;;;5035100;28;20049;-75
2023/06/29 03:48:29;;;;;;;23.85;21.63;;;;;;;;;;5034124;28;20367;-75
2023/06/29 03:50:56;;;;;;;25.63;23.02;;;;;;;;;;5035013;28;20562;-75
2023/06/29 03:53:22;;;;;;;26.77;24.17;;;;;;;;;;5035043;28;20067;-76
2023/06/29 03:55:48;;;;;;;25.23;22.63;;;;;;;;;;5017782;28;20049;-75
2023/06/29 03:58:15;;;;;;;25.67;23.23;;;;;;;;;;5033928;28;20085;-75
2023/06/29 04:00:42;;;;;;;25.30;22.70;;;;;;;;;;5033797;28;20049;-75
2023/06/29 04:03:08;;;;;;;26.75;22.58;;;;;;;;;;5033862;28;20045;-76
2023/06/29 04:05:34;;;;;;;26.13;23.55;;;;;;;;;;5034621;28;20053;-75
2023/06/29 04:08:04;;;;;;;27.45;24.70;;;;;;;;;;5033466;28;20041;-76
2023/06/29 04:10:31;;;;;;;25.33;22.73;;;;;;;;;;5034785;28;20079;-75
2023/06/29 04:12:57;;;;;;;25.80;23.00;;;;;;;;;;5034890;28;20049;-75
2023/06/29 04:15:23;;;;;;;25.02;22.52;;;;;;;;;;5034650;28;20448;-75
2023/06/29 04:17:49;;;;;;;27.77;24.98;;;;;;;;;;5034530;28;20390;-75
2023/06/29 04:20:15;;;;;;;26.98;24.20;;;;;;;;;;5033062;28;20493;-75
2023/06/29 04:22:41;;;;;;;27.25;24.45;;;;;;;;;;5034408;28;20176;-75
2023/06/29 04:25:07;;;;;;;28.13;25.10;;;;;;;;;;5034180;28;20475;-76
2023/06/29 04:27:34;;;;;;;27.15;24.55;;;;;;;;;;5032674;28;20501;-75
2023/06/29 04:30:04;;;;;;;30.92;26.77;;;;;;;;;;5033040;28;20135;-75
2023/06/29 04:32:31;;;;;;;28.00;25.15;;;;;;;;;;5034559;28;20046;-76
2023/06/29 04:34:59;;;;;;;30.33;27.38;;;;;;;;;;5033778;28;20469;-76
2023/06/29 04:37:25;;;;;;;27.63;24.73;;;;;;;;;;5034961;28;20072;-75
2023/06/29 04:39:52;;;;;;;28.77;25.75;;;;;;;;;;5034715;28;20085;-76
2023/06/29 04:42:18;;;;;;;29.52;26.60;;;;;;;;;;5033135;28;20049;-76
2023/06/29 04:44:44;;;;;;;28.92;25.88;;;;;;;;;;5033138;28;20057;-76
2023/06/29 04:47:11;;;;;;;27.83;25.08;;;;;;;;;;5033975;28;20094;-76
2023/06/29 04:49:39;;;;;;;29.70;26.70;;;;;;;;;;5034216;28;20067;-76
2023/06/29 04:52:05;;;;;;;30.10;27.02;;;;;;;;;;5033927;28;20440;-76
2023/06/29 04:54:32;;;;;;;29.83;27.02;;;;;;;;;;5016169;28;20085;-76
2023/06/29 04:56:59;;;;;;;29.30;26.33;;;;;;;;;;5033604;28;20551;-76
2023/06/29 04:59:25;;;;;;;30.23;27.10;;;;;;;;;;5033159;28;20045;-76
2023/06/29 05:01:51;;;;;;;33.40;30.10;;;;;;;;;;5032644;28;20500;-75
2023/06/29 05:04:17;;;;;;;33.95;30.52;;;;;;;;;;5033759;28;20049;-76
2023/06/29 05:06:44;;;;;;;37.30;32.53;;;;;;;;;;5033707;28;20050;-76
2023/06/29 05:09:10;;;;;;;34.10;30.45;;;;;;;;;;5032487;28;20049;-76
2023/06/29 05:11:36;;;;;;;34.65;31.23;;;;;;;;;;5032700;28;20045;-75
2023/06/29 05:14:02;;;;;;;33.88;30.52;;;;;;;;;;5033643;28;20049;-76
2023/06/29 05:16:28;;;;;;;33.33;29.92;;;;;;;;;;5016489;28;20045;-76
2023/06/29 05:18:55;;;;;;;33.20;29.63;;;;;;;;;;5034152;28;20115;-76
2023/06/29 05:21:22;;;;;;;34.50;31.00;;;;;;;;;;5033579;28;20049;-76
2023/06/29 05:23:48;;;;;;;33.42;30.05;;;;;;;;;;5033492;28;20053;-76
2023/06/29 05:26:14;;;;;;;34.63;31.15;;;;;;;;;;5033795;28;20064;-76
2023/06/29 05:28:40;;;;;;;35.15;31.67;;;;;;;;;;5032179;28;20046;-76
2023/06/29 05:31:06;;;;;;;34.35;31.00;;;;;;;;;;5032396;28;20041;-76
2023/06/29 05:33:32;;;;;;;34.25;30.58;;;;;;;;;;5037489;28;20415;-76
2023/06/29 05:35:58;;;;;;;40.08;31.88;;;;;;;;;;5036566;28;20060;-76
2023/06/29 05:38:25;;;;;;;33.97;30.70;;;;;;;;;;5037578;28;20045;-76
2023/06/29 05:40:51;;;;;;;33.90;30.50;;;;;;;;;;5038048;28;20053;-76
2023/06/29 05:43:18;;;;;;;34.55;31.02;;;;;;;;;;5036181;28;20045;-76
2023/06/29 05:45:44;;;;;;;34.17;30.27;;;;;;;;;;5036694;28;20053;-76
2023/06/29 05:48:10;;;;;;;34.45;31.02;;;;;;;;;;5037252;28;20045;-76
2023/06/29 05:50:36;;;;;;;35.40;31.73;;;;;;;;;;5036319;28;20049;-76
2023/06/29 05:53:03;;;;;;;32.33;29.05;;;;;;;;;;5037084;28;20049;-76
2023/06/29 05:55:30;;;;;;;32.00;28.98;;;;;;;;;;5036273;28;20053;-76
2023/06/29 05:57:56;;;;;;;32.75;29.10;;;;;;;;;;5037179;28;20045;-76
2023/06/29 06:00:22;;;;;;;30.58;27.60;;;;;;;;;;5036359;28;20085;-76
2023/06/29 06:02:48;;;;;;;30.88;27.77;;;;;;;;;;5036081;28;20045;-76
2023/06/29 06:05:15;;;;;;;32.67;29.27;;;;;;;;;;5036009;28;20052;-76
2023/06/29 06:07:41;;;;;;;32.33;28.15;;;;;;;;;;5036628;28;20124;-76
2023/06/29 06:10:07;;;;;;;31.52;28.20;;;;;;;;;;5035914;28;20057;-76
2023/06/29 06:12:33;;;;;;;31.90;28.77;;;;;;;;;;5035921;28;20049;-76
2023/06/29 06:14:59;;;;;;;32.30;28.90;;;;;;;;;;5036920;28;20477;-76
2023/06/29 06:17:25;;;;;;;31.92;27.92;;;;;;;;;;5037402;28;20050;-76
2023/06/29 06:19:51;;;;;;;30.52;27.23;;;;;;;;;;5036539;28;20454;-76
2023/06/29 06:22:18;;;;;;;30.92;27.75;;;;;;;;;;5035486;28;20393;-76
2023/06/29 06:24:44;;;;;;;29.80;27.17;;;;;;;;;;5036794;28;20049;-76
2023/06/29 06:27:10;;;;;;;28.30;25.35;;;;;;;;;;5035476;28;20489;-76
2023/06/29 06:29:36;;;;;;;27.98;25.20;;;;;;;;;;5036363;28;20377;-76
2023/06/29 06:32:03;;;;;;;29.65;26.63;;;;;;;;;;5035831;28;20041;-76
2023/06/29 06:34:30;;;;;;;28.58;25.48;;;;;;;;;;5019098;28;20049;-76
2023/06/29 06:36:57;;;;;;;28.00;25.20;;;;;;;;;;5019251;28;20053;-76
2023/06/29 06:39:23;;;;;;;27.85;24.63;;;;;;;;;;5036443;28;20091;-76
2023/06/29 06:41:50;;;;;;;28.92;26.02;;;;;;;;;;5036147;28;20136;-76
2023/06/29 06:44:16;;;;;;;29.95;25.77;;;;;;;;;;5034447;28;20217;-76
2023/06/29 06:46:42;;;;;;;27.90;24.63;;;;;;;;;;5035248;28;20397;-77
2023/06/29 06:49:08;;;;;;;27.70;24.92;;;;;;;;;;5036059;28;20350;-76
2023/06/29 06:51:34;;;;;;;27.92;25.13;;;;;;;;;;5036041;28;20452;-76
2023/06/29 06:54:00;;;;;;;28.20;25.50;;;;;;;;;;5036205;28;20099;-76
2023/06/29 06:56:26;;;;;;;28.80;25.73;;;;;;;;;;5035456;28;20071;-76
2023/06/29 06:58:52;;;;;;;27.98;25.35;;;;;;;;;;5035891;28;20081;-76
2023/06/29 07:01:21;;;;;;;28.65;25.85;;;;;;;;;;5036488;28;20045;-76
2023/06/29 07:03:47;;;;;;;29.98;26.73;;;;;;;;;;5034960;28;20068;-76
2023/06/29 07:06:13;;;;;;;29.42;26.50;;;;;;;;;;5035871;28;20041;-76
2023/06/29 07:08:39;;;;;;;28.98;26.17;;;;;;;;;;5034969;28;20434;-76
2023/06/29 07:11:06;;;;;;;27.98;25.10;;;;;;;;;;5034924;28;20068;-76
2023/06/29 07:13:32;;;;;;;30.30;27.05;;;;;;;;;;5035766;28;20053;-76
2023/06/29 07:15:58;;;;;;;29.10;26.10;;;;;;;;;;5035843;28;20041;-76
2023/06/29 07:18:25;;;;;;;29.85;26.80;;;;;;;;;;5035719;28;20049;-76
2023/06/29 07:20:51;;;;;;;28.85;26.02;;;;;;;;;;5035014;28;20378;-76
2023/06/29 07:23:17;;;;;;;29.52;26.38;;;;;;;;;;5034672;28;20489;-76
2023/06/29 07:25:43;;;;;;;29.73;26.55;;;;;;;;;;5035409;28;20144;-76
2023/06/29 07:28:09;;;;;;;29.20;26.35;;;;;;;;;;5035144;28;20084;-76
2023/06/29 07:30:36;;;;;;;29.83;26.73;;;;;;;;;;5034736;28;20112;-76
2023/06/29 07:33:02;;;;;;;28.35;25.67;;;;;;;;;;5034841;28;20497;-76
2023/06/29 07:35:28;;;;;;;28.67;25.80;;;;;;;;;;5034201;28;20512;-76
2023/06/29 07:37:54;;;;;;;28.00;25.35;;;;;;;;;;5035400;28;20136;-75
2023/06/29 07:40:20;;;;;;;27.95;25.27;;;;;;;;;;5017804;28;20060;-76
2023/06/29 07:42:46;;;;;;;28.55;25.73;;;;;;;;;;5034015;28;20064;-76
2023/06/29 07:45:13;;;;;;;27.77;25.00;;;;;;;;;;5035421;28;20041;-76
2023/06/29 07:47:40;;;;;;;28.95;26.00;;;;;;;;;;5034261;28;20053;-76
2023/06/29 07:50:06;;;;;;;27.80;24.98;;;;;;;;;;5035064;28;20084;-76
2023/06/29 07:52:32;;;;;;;29.17;26.13;;;;;;;;;;5035647;28;20079;-76
2023/06/29 07:54:58;;;;;;;28.58;25.52;;;;;;;;;;5034203;28;20049;-76
2023/06/29 07:57:25;;;;;;;28.90;26.13;;;;;;;;;;5033855;28;20057;-76
2023/06/29 07:59:51;;;;;;;29.30;26.30;;;;;;;;;;5035728;28;20057;-76
2023/06/29 08:02:17;;;;;;;29.13;26.33;;;;;;;;;;5034808;28;20123;-76
2023/06/29 08:04:43;;;;;;;29.92;26.83;;;;;;;;;;5034878;28;20081;-76
2023/06/29 08:07:09;;;;;;;29.83;26.88;;;;;;;;;;5018068;28;20053;-76
2023/06/29 08:09:35;;;;;;;28.15;25.45;;;;;;;;;;5035360;28;20143;-76
2023/06/29 08:12:01;;;;;;;26.67;24.20;;;;;;;;;;5033802;28;20080;-76
2023/06/29 08:14:27;;;;;;;29.95;25.45;;;;;;;;;;5033275;28;20193;-77
2023/06/29 08:16:53;;;;;;;29.55;26.65;;;;;;;;;;5033549;28;20448;-77
2023/06/29 08:19:19;;;;;;;29.52;26.52;;;;;;;;;;5033432;28;20045;-79
2023/06/29 08:21:47;;;;;;;27.92;25.38;;;;;;;;;;5033608;28;20115;-76
2023/06/29 08:24:14;;;;;;;26.67;24.10;;;;;;;;;;5033299;28;20128;-76
2023/06/29 08:26:40;;;;;;;28.88;26.08;;;;;;;;;;5033126;28;20132;-77
2023/06/29 08:29:07;;;;;;;27.52;24.77;;;;;;;;;;5033153;28;20045;-76
2023/06/29 08:31:33;;;;;;;26.77;24.23;;;;;;;;;;5033546;28;20045;-76
2023/06/29 08:33:59;;;;;;;26.00;23.42;;;;;;;;;;5034256;28;20049;-76
2023/06/29 08:36:28;;;;;;;26.20;23.50;;;;;;;;;;5034173;28;20059;-77
2023/06/29 08:38:54;;;;;;;24.95;22.45;;;;;;;;;;5033248;28;20484;-76
2023/06/29 08:41:20;;;;;;;24.02;21.60;;;;;;;;;;5033275;28;20485;-77
2023/06/29 08:43:46;;;;;;;23.30;20.98;;;;;;;;;;5033147;28;20053;-76
2023/06/29 08:46:12;;;;;;;23.25;21.05;;;;;;;;;;5033121;28;20077;-77
2023/06/29 08:48:43;;;;;;;22.95;20.58;;;;;;;;;;5032791;28;20055;-76
2023/06/29 08:51:10;;;;;;;23.27;20.80;;;;;;;;;;5033320;28;20045;-76
2023/06/29 08:53:37;;;;;;;23.92;21.52;;;;;;;;;;5032992;28;20083;-77
2023/06/29 08:56:03;;;;;;;25.42;22.90;;;;;;;;;;5033985;28;20049;-77
2023/06/29 08:58:29;;;;;;;25.92;23.30;;;;;;;;;;5032916;28;20049;-76
2023/06/29 09:00:56;;;;;;;26.27;23.80;;;;;;;;;;5033047;28;20053;-76
2023/06/29 09:03:26;;;;;;;25.42;22.95;;;;;;;;;;5033391;28;20343;-76
2023/06/29 09:05:54;;;;;;;26.77;23.98;;;;;;;;;;5032606;28;20481;-76
2023/06/29 09:08:20;;;;;;;27.80;25.05;;;;;;;;;;5032477;28;20045;-76
2023/06/29 09:10:47;;;;;;;25.98;23.55;;;;;;;;;;5032884;28;20060;-76
2023/06/29 09:13:13;;;;;;;26.80;24.17;;;;;;;;;;5032451;28;20049;-76
2023/06/29 09:15:40;;;;;;;26.10;23.67;;;;;;;;;;5032518;28;20096;-76
2023/06/29 09:18:07;;;;;;;25.35;22.70;;;;;;;;;;5032879;28;20049;-76
2023/06/29 09:20:34;;;;;;;25.50;22.90;;;;;;;;;;5032324;28;20110;-76
2023/06/29 09:23:04;;;;;;;25.38;22.63;;;;;;;;;;5032619;28;20133;-76
2023/06/29 09:25:30;;;;;;;25.83;23.20;;;;;;;;;;5015579;28;20093;-76
2023/06/29 09:28:06;;;;;;;24.00;21.70;;;;;;;;;;5032518;28;20049;-76
2023/06/29 09:30:39;;;;;;;25.73;23.17;;;;;;;;;;5032387;28;20060;-76
2023/06/29 09:33:12;;;;;;;26.33;23.52;;;;;;;;;;5033274;28;20056;-76
2023/06/29 09:35:40;;;;;;;24.88;22.23;;;;;;;;;;5032478;28;20111;-76
2023/06/29 09:38:06;;;;;;;22.00;20.02;;;;;;;;;;5032454;28;20136;-76
2023/06/29 09:40:45;;;;;;;21.88;19.98;;;;;;;;;;5032464;28;20106;-76
2023/06/29 09:43:15;;;;;;;22.27;20.17;;;;;;;;;;5032566;28;20183;-76
2023/06/29 09:45:42;;;;;;;21.67;19.73;;;;;;;;;;5033802;28;20049;-76
2023/06/29 09:48:11;;;;;;;21.35;19.40;;;;;;;;;;5033229;28;20132;-76
2023/06/29 09:50:40;;;;;;;22.13;20.13;;;;;;;;;;5033415;28;20401;-76
2023/06/29 09:53:09;;;;;;;22.13;20.23;;;;;;;;;;5032305;28;20061;-75
2023/06/29 09:55:38;;;;;;;22.38;20.15;;;;;;;;;;5032227;28;20482;-75
2023/06/29 09:58:04;;;;;;;20.48;18.67;;;;;;;;;;5032241;28;20493;-75
2023/06/29 10:00:32;;;;;;;21.13;19.13;;;;;;;;;;5033117;28;20046;-76
2023/06/29 10:02:58;;;;;;;24.38;21.98;;;;;;;;;;5033180;28;20049;-75
2023/06/29 10:05:24;;;;;;;23.83;21.42;;;;;;;;;;5032628;28;20140;-75
2023/06/29 10:07:54;;;;;;;24.67;22.27;;;;;;;;;;5033093;28;20037;-75
2023/06/29 10:10:23;;;;;;;23.08;20.83;;;;;;;;;;5033849;28;20378;-75
2023/06/29 10:12:51;;;;;;;24.63;22.45;;;;;;;;;;5032873;28;20115;-75
2023/06/29 10:15:19;;;;;;;25.52;23.02;;;;;;;;;;5031881;28;20537;-75
2023/06/29 10:17:49;;;;;;;25.35;22.92;;;;;;;;;;5033079;28;20064;-75
2023/06/29 10:20:17;;;;;;;26.02;23.52;;;;;;;;;;5036465;28;20485;-75
2023/06/29 10:22:43;;;;;;;25.60;23.30;;;;;;;;;;5036744;28;20053;-75
2023/06/29 10:25:12;;;;;;;25.98;23.67;;;;;;;;;;5036723;28;20099;-75
2023/06/29 10:27:39;;;;;;;28.05;25.00;;;;;;;;;;5035377;28;20060;-75
2023/06/29 10:30:05;;;;;;;26.00;23.58;;;;;;;;;;5036534;28;20072;-75
2023/06/29 10:32:39;;;;;;;25.88;23.52;;;;;;;;;;5019405;28;20057;-75
2023/06/29 10:35:06;;;;;;;27.30;24.67;;;;;;;;;;5036565;28;20053;-75
2023/06/29 10:37:33;;;;;;;26.35;23.95;;;;;;;;;;5035551;28;20064;-75
2023/06/29 10:39:59;;;;;;;28.23;25.58;;;;;;;;;;5036318;28;20466;-75
2023/06/29 10:42:25;;;;;;;27.40;24.88;;;;;;;;;;5035707;28;20280;-75
2023/06/29 10:44:51;;;;;;;27.85;25.30;;;;;;;;;;5036933;28;20081;-75
2023/06/29 10:47:28;;;;;;;28.83;25.98;;;;;;;;;;5035241;28;20041;-75
2023/06/29 10:50:09;;;;;;;26.48;23.98;;;;;;;;;;5035627;28;20401;-75
2023/06/29 10:52:36;;;;;;;27.38;24.73;;;;;;;;;;5036770;28;20397;-75
2023/06/29 10:55:14;;;;;;;27.92;25.17;;;;;;;;;;5035285;28;20397;-75
2023/06/29 10:57:43;;;;;;;28.83;26.13;;;;;;;;;;5019019;28;20053;-75
2023/06/29 11:00:09;;;;;;;28.80;26.05;;;;;;;;;;5036002;28;20103;-75
2023/06/29 11:02:35;;;;;;;30.25;27.30;;;;;;;;;;5035013;28;20164;-75
2023/06/29 11:05:02;;;;;;;29.77;27.02;;;;;;;;;;5035051;28;20053;-75
2023/06/29 11:07:28;;;;;;;31.60;28.35;;;;;;;;;;5035245;28;20042;-76
2023/06/29 11:10:01;;;;;;;29.58;26.73;;;;;;;;;;5034947;28;20065;-76
2023/06/29 11:12:27;;;;;;;30.13;27.15;;;;;;;;;;5035911;28;20052;-75
2023/06/29 11:14:54;;;;;;;28.90;26.40;;;;;;;;;;5035348;28;20425;-75
2023/06/29 11:17:20;;;;;;;29.08;26.25;;;;;;;;;;5036007;28;20450;-79
2023/06/29 11:19:48;;;;;;;25.83;23.42;;;;;;;;;;5034379;28;20048;-76
2023/06/29 11:22:14;;;;;;;26.17;23.77;;;;;;;;;;5035526;28;20049;-76
2023/06/29 11:24:44;;;;;;;23.67;21.58;;;;;;;;;;5035562;28;20056;-76
2023/06/29 11:27:10;;;;;;;22.63;20.52;;;;;;;;;;5035624;28;20057;-77
2023/06/29 11:29:36;;;;;;;22.98;20.83;;;;;;;;;;5033809;28;20068;-76
2023/06/29 11:32:10;;;;;;;21.70;19.90;;;;;;;;;;5035954;28;20049;-76
2023/06/29 11:34:36;;;;;;;24.77;22.33;;;;;;;;;;5035155;28;20461;-76
2023/06/29 11:37:02;;;;;;;23.50;21.42;;;;;;;;;;5034250;28;20057;-76
2023/06/29 11:39:30;;;;;;;22.42;19.65;;;;;;;;;;5034579;28;20042;-76
2023/06/29 11:41:56;;;;;;;22.65;20.60;;;;;;;;;;5034255;28;20057;-76
2023/06/29 11:44:23;;;;;;;21.63;19.67;;;;;;;;;;5034540;28;20056;-76
2023/06/29 11:46:49;;;;;;;23.15;21.05;;;;;;;;;;5034332;28;20053;-76
2023/06/29 11:49:19;;;;;;;21.40;19.35;;;;;;;;;;5034385;28;20095;-77
2023/06/29 11:51:45;;;;;;;20.00;18.17;;;;;;;;;;5035153;28;20050;-77
2023/06/29 11:54:12;;;;;;;20.33;18.63;;;;;;;;;;5034071;28;20046;-76
2023/06/29 11:56:39;;;;;;;20.02;18.45;;;;;;;;;;5033992;28;20049;-76
2023/06/29 11:59:06;;;;;;;23.38;21.25;;;;;;;;;;5033924;28;20398;-76
2023/06/29 12:01:33;;;;;;;22.02;20.05;;;;;;;;;;5034612;28;20054;-76
2023/06/29 12:03:59;;;;;;;21.50;19.70;;;;;;;;;;5034436;28;20052;-76
2023/06/29 12:06:25;;;;;;;20.17;18.48;;;;;;;;;;5033794;28;20452;-76
2023/06/29 12:08:51;;;;;;;18.02;16.38;;;;;;;;;;5035350;28;20099;-76
2023/06/29 12:11:19;;;;;;;18.98;17.38;;;;;;;;;;5033720;28;20051;-76
2023/06/29 12:13:48;;;;;;;18.23;16.73;;;;;;;;;;5033724;28;20045;-76
2023/06/29 12:16:18;;;;;;;18.27;16.55;;;;;;;;;;5034443;28;20081;-76
2023/06/29 12:18:44;;;;;;;19.05;17.20;;;;;;;;;;5033390;28;20048;-76
2023/06/29 12:21:10;;;;;;;18.83;17.23;;;;;;;;;;5016947;28;20045;-76
2023/06/29 12:23:36;;;;;;;19.23;17.63;;;;;;;;;;5000867;28;20049;-76
2023/06/29 12:26:03;;;;;;;17.65;16.13;;;;;;;;;;5033960;28;20428;-77
2023/06/29 12:28:29;;;;;;;17.40;16.05;;;;;;;;;;5034355;28;20072;-77
2023/06/29 12:30:55;;;;;;;17.88;16.38;;;;;;;;;;5017091;28;20063;-76
2023/06/29 12:33:21;;;;;;;18.27;16.67;;;;;;;;;;5033871;28;20502;-77
2023/06/29 12:35:47;;;;;;;18.50;16.88;;;;;;;;;;5032968;28;20098;-76
2023/06/29 12:38:13;;;;;;;21.20;19.30;;;;;;;;;;5032729;28;20049;-77
2023/06/29 12:40:39;;;;;;;20.65;18.75;;;;;;;;;;5033949;28;20041;-77
2023/06/29 12:43:05;;;;;;;22.30;20.25;;;;;;;;;;5032588;28;20045;-76
2023/06/29 12:45:31;;;;;;;21.70;19.90;;;;;;;;;;5032876;28;20045;-76
2023/06/29 12:47:57;;;;;;;23.40;21.10;;;;;;;;;;5032368;28;20041;-77
2023/06/29 12:50:23;;;;;;;24.25;21.85;;;;;;;;;;5032849;28;20099;-77
2023/06/29 12:52:50;;;;;;;24.15;22.17;;;;;;;;;;5032741;28;20049;-77
2023/06/29 12:55:16;;;;;;;24.65;22.60;;;;;;;;;;5032423;28;20049;-77
2023/06/29 12:57:43;;;;;;;24.83;22.42;;;;;;;;;;5033256;28;20044;-77
2023/06/29 13:00:10;;;;;;;24.38;22.17;;;;;;;;;;5033022;28;20122;-76
2023/06/29 13:02:36;;;;;;;26.25;24.00;;;;;;;;;;5032655;28;20110;-76
2023/06/29 13:05:02;;;;;;;27.35;24.95;;;;;;;;;;5032626;28;20132;-77
2023/06/29 13:07:28;;;;;;;26.48;23.95;;;;;;;;;;5032648;28;20037;-77
2023/06/29 13:09:57;;;;;;;25.88;23.48;;;;;;;;;;5032652;28;20516;-76
2023/06/29 13:12:23;;;;;;;24.63;22.33;;;;;;;;;;5032669;28;20068;-77
2023/06/29 13:14:50;;;;;;;23.35;21.15;;;;;;;;;;5032513;28;20053;-76
2023/06/29 13:17:16;;;;;;;21.23;19.30;;;;;;;;;;5032511;28;20057;-77
2023/06/29 13:19:43;;;;;;;23.02;21.15;;;;;;;;;;5032524;28;20156;-76
2023/06/29 13:22:09;;;;;;;20.50;18.70;;;;;;;;;;5032668;28;20138;-76
2023/06/29 13:24:35;;;;;;;21.15;19.35;;;;;;;;;;5032391;28;20613;-76
2023/06/29 13:27:03;;;;;;;19.73;18.08;;;;;;;;;;5031720;28;20172;-77
2023/06/29 13:29:30;;;;;;;18.55;17.05;;;;;;;;;;5033165;28;20049;-76
2023/06/29 13:31:56;;;;;;;18.35;16.75;;;;;;;;;;5034010;28;20150;-77
2023/06/29 13:34:22;;;;;;;20.20;18.45;;;;;;;;;;5015962;28;20087;-76
2023/06/29 13:36:49;;;;;;;19.30;17.58;;;;;;;;;;5032224;28;20054;-76
2023/06/29 13:39:15;;;;;;;19.98;18.17;;;;;;;;;;5032118;28;20100;-77
2023/06/29 13:41:43;;;;;;;19.25;17.58;;;;;;;;;;5032179;28;20081;-77
2023/06/29 13:44:10;;;;;;;19.67;18.08;;;;;;;;;;5033213;28;20056;-76
2023/06/29 13:46:36;;;;;;;21.10;19.25;;;;;;;;;;5015317;28;20050;-76
2023/06/29 13:49:02;;;;;;;21.13;19.48;;;;;;;;;;5032197;28;20083;-76
2023/06/29 13:51:29;;;;;;;21.33;19.50;;;;;;;;;;5032027;28;20045;-75
2023/06/29 13:53:55;;;;;;;22.27;20.38;;;;;;;;;;5034118;28;20358;-75
2023/06/29 13:56:22;;;;;;;22.20;20.20;;;;;;;;;;5037175;28;20083;-76
2023/06/29 13:58:49;;;;;;;22.35;20.38;;;;;;;;;;5036893;28;20049;-75
2023/06/29 14:01:15;;;;;;;23.42;21.27;;;;;;;;;;5035930;28;20132;-75
2023/06/29 14:03:41;;;;;;;24.80;22.48;;;;;;;;;;5036214;28;20432;-75
2023/06/29 14:06:07;;;;;;;24.63;22.63;;;;;;;;;;5037806;28;20068;-75
2023/06/29 14:08:36;;;;;;;24.65;22.35;;;;;;;;;;5036945;28;20049;-76
2023/06/29 14:11:03;;;;;;;22.63;20.65;;;;;;;;;;5036592;28;20200;-75
2023/06/29 14:13:30;;;;;;;24.85;22.58;;;;;;;;;;5036822;28;20477;-75